Flight Track Log - Related Links

Times and Time Zones

All times are in EDT time to prevent confusion due to time zone crossing. See the BBA4 flight status page for this flight to view local times or setup timezone preferences in your user account.

Time Position Orientation Groundspeed Altitude Reporting Facility
EDT Latitude Longitude Course Direction KTS MPH feet Rate Location/Type
Sun 05:06:24 PM 38.5667 -90.2000 130° Southeast 205 236 2,500  Level Gateway (St. Louis) TRACON
Sun 05:07:12 PM 38.5333 -90.1500 130° Southeast 235 270 3,200 2,000 Climbing Gateway (St. Louis) TRACON
Sun 05:08:12 PM 38.5333 -90.0667 90° East 292 336 6,100 3,526 Climbing Gateway (St. Louis) TRACON
Sun 05:09:06 PM 38.5500 -89.9667 78° East 286 329 9,900 2,592 Climbing Gateway (St. Louis) TRACON
Sun 05:10:17 PM 38.5539 -89.8464 88° East 300 345 11,500 1,822 Climbing Kansas City Center
Sun 05:11:21 PM 38.5683 -89.7267 81° East 334 384 14,000 1,200 Climbing Kansas City Center
Sun 05:12:22 PM 38.6642 -89.6314 38° Northeast 381 438 14,000 484 Level Kansas City Center
Sun 05:13:25 PM 38.7661 -89.5581 29° Northeast 420 483 15,000 1,344 Climbing Kansas City Center
Sun 05:14:27 PM 38.8031 -89.4217 71° East 408 470 16,800 1,220 Climbing Kansas City Center
Sun 05:15:28 PM 38.8231 -89.2628 81° East 417 480 17,500 1,008 Climbing Kansas City Center
Sun 05:16:32 PM 38.8458 -89.1181 79° East 417 480 18,900 1,210 Climbing Kansas City Center
Sun 05:17:32 PM 38.9311 -88.9811 51° Northeast 460 529 20,000 545 Climbing Kansas City Center
Sun 05:18:33 PM 39.0047 -88.8683 50° Northeast 474 545 20,000 864 Level Kansas City Center
Sun 05:19:37 PM 39.0892 -88.7306 52° Northeast 485 558 21,800 1,857 Climbing Kansas City Center
Sun 05:20:39 PM 39.1903 -88.5650 52° Northeast 496 571 23,900 1,610 Climbing Kansas City Center
Sun 05:21:40 PM 39.2767 -88.4192 53° Northeast 504 580 25,100 1,230 Climbing Kansas City Center
Sun 05:22:41 PM 39.3644 -88.2717 52° Northeast 510 587 26,400 1,619 Climbing Kansas City Center
Sun 05:23:46 PM 39.4592 -88.1139 52° Northeast 528 608 28,500 2,000 Climbing Kansas City Center
Sun 05:24:23 PM 39.5217 -88.0094 52° Northeast 535 616 29,800 1,394 Climbing Indianapolis Center
Sun 05:25:25 PM 39.6131 -87.8564 52° Northeast 536 617 30,800 871 Climbing Indianapolis Center
Sun 05:26:27 PM 39.7078 -87.6967 52° Northeast 548 631 31,600 1,597 Climbing Indianapolis Center
Sun 05:27:29 PM 39.8253 -87.4964 53° Northeast 578 665 34,100 2,419 Climbing Indianapolis Center
Sun 05:28:31 PM 39.9164 -87.3397 53° Northeast 553 636 36,600 1,887 Climbing Indianapolis Center
Sun 05:29:33 PM 40.0075 -87.1856 52° Northeast 539 620 38,000 683 Climbing Indianapolis Center
Sun 05:30:34 PM 40.1006 -87.0261 53° Northeast 546 628 38,000  Level Indianapolis Center
Sun 05:31:32 PM 40.1917 -86.8667 53° Northeast 549 632 38,000 700 Level Chicago Center
Sun 05:32:34 PM 40.2842 -86.7056 53° Northeast 551 634 39,400 960 Climbing Chicago Center
Sun 05:33:37 PM 40.3750 -86.5483 53° Northeast 541 623 40,000 768 Climbing Chicago Center
Sun 05:34:39 PM 40.4661 -86.3867 53° Northeast 548 631 41,000 484 Climbing Chicago Center
Sun 05:35:41 PM 40.5572 -86.2269 53° Northeast 544 626 41,000  Level Chicago Center
Sun 05:36:43 PM 40.6661 -86.0350 53° Northeast 545 627 41,000  Level Chicago Center
Sun 05:37:45 PM 40.7500 -85.8806 54° Northeast 549 632 41,000  Level Chicago Center
Sun 05:38:47 PM 40.8392 -85.7203 54° Northeast 547 629 41,000  Level Chicago Center
Sun 05:39:49 PM 40.9286 -85.5586 54° Northeast 547 629 41,000  Level Chicago Center
Sun 05:40:51 PM 41.0361 -85.3614 54° Northeast 555 639 41,000  Level Chicago Center
Sun 05:41:53 PM 41.1256 -85.1942 55° Northeast 559 643 41,000  Level Chicago Center
Sun 05:42:55 PM 41.2139 -85.0322 54° Northeast 553 636 41,000  Level Chicago Center
Sun 05:43:57 PM 41.3036 -84.8675 54° Northeast 555 639 41,000  Level Chicago Center
Sun 05:45:00 PM 41.3936 -84.7031 54° Northeast 556 640 41,000  Level Chicago Center
Sun 05:46:02 PM 41.4986 -84.5042 55° Northeast 552 635 41,000 97 Level Chicago Center
Sun 05:47:04 PM 41.5872 -84.3369 55° Northeast 554 638 41,200 823 Climbing Chicago Center
Sun 05:48:06 PM 41.6764 -84.1694 54° Northeast 556 640 42,700 871 Climbing Chicago Center
Sun 05:49:08 PM 41.7589 -84.0139 55° Northeast 522 601 43,000 145 Climbing Chicago Center
Sun 05:50:10 PM 41.8403 -83.8569 55° Northeast 516 594 43,000  Level Chicago Center
Sun 05:51:07 PM 41.9306 -83.6786 56° Northeast 517 595 43,000  Level Cleveland Center
Sun 05:52:07 PM 42.0164 -83.5150 55° Northeast 522 601 43,000  Level Cleveland Center
Sun 05:53:07 PM 42.0975 -83.3481 57° Northeast 528 608 43,000  Level Cleveland Center
Sun 05:54:07 PM 42.1594 -83.1939 62° Northeast 528 608 43,000  Level Cleveland Center
Sun 05:55:07 PM 42.2364 -83.0231 59° Northeast 528 608 43,000  Level Cleveland Center
Sun 05:56:07 PM 42.3106 -82.8519 60° Northeast 523 602 43,000  Level Cleveland Center
Sun 05:57:07 PM 42.3869 -82.6831 58° Northeast 523 602 43,000  Level Cleveland Center
Sun 05:58:07 PM 42.4608 -82.5111 60° Northeast 523 602 43,000  Level Cleveland Center
Sun 05:59:07 PM 42.5344 -82.3386 60° Northeast 523 602 43,000  Level Cleveland Center
Sun 06:00:07 PM 42.6097 -82.1686 59° Northeast 523 602 43,000  Level Cleveland Center
Sun 06:01:10 PM 42.6850 -81.9953 59° Northeast 523 602 43,000  Level Cleveland Center
Sun 06:02:07 PM 42.7494 -81.8186 64° Northeast 523 602 43,000  Level Cleveland Center
Sun 06:03:07 PM 42.8161 -81.6192 65° Northeast 518 596 43,000  Level Cleveland Center
Sun 06:04:32 PM 42.8833 -81.3333 72° East 530 610 43,000  Level Toronto Center
Sun 06:05:32 PM 42.9500 -81.1667 61° Northeast 540 621 43,000  Level Toronto Center
Sun 06:06:32 PM 43.0000 -80.9833 69° East 540 621 43,000  Level Toronto Center
Sun 06:07:32 PM 43.0667 -80.8000 63° Northeast 540 621 43,000  Level Toronto Center
Sun 06:08:32 PM 43.1333 -80.6000 65° Northeast 540 621 43,000  Level Toronto Center
Sun 06:09:32 PM 43.1833 -80.4167 69° East 540 621 43,000  Level Toronto Center
Sun 06:10:32 PM 43.2500 -80.2000 67° East 540 621 43,000  Level Toronto Center
Sun 06:11:32 PM 43.3000 -80.0167 69° East 540 621 43,000  Level Toronto Center
Sun 06:12:32 PM 43.3667 -79.8333 63° Northeast 540 621 43,000  Level Toronto Center
Sun 06:13:32 PM 43.4167 -79.6500 69° East 540 621 43,000  Level Toronto Center
Sun 06:14:32 PM 43.4833 -79.4500 65° Northeast 540 621 43,000  Level Toronto Center
Sun 06:15:32 PM 43.5333 -79.2667 69° East 540 621 43,000  Level Toronto Center
Sun 06:16:32 PM 43.6000 -79.0833 63° Northeast 540 621 43,000  Level Toronto Center
Sun 06:17:32 PM 43.6500 -78.8667 72° East 540 621 43,000  Level Toronto Center
Sun 06:18:32 PM 43.7167 -78.6833 63° Northeast 540 621 43,000  Level Toronto Center
Sun 06:19:32 PM 43.7667 -78.5000 69° East 540 621 43,000  Level Toronto Center
Sun 06:20:32 PM 43.8167 -78.3000 71° East 540 621 43,000  Level Toronto Center
Sun 06:21:32 PM 43.8667 -78.1000 71° East 540 621 43,000  Level Toronto Center
Sun 06:22:32 PM 43.9167 -77.9167 69° East 550 633 43,000  Level Toronto Center
Sun 06:23:32 PM 43.9833 -77.7167 65° Northeast 540 621 43,000  Level Toronto Center
Sun 06:24:32 PM 44.0333 -77.5167 71° East 540 621 43,000  Level Toronto Center
Sun 06:25:32 PM 44.1000 -77.3333 63° Northeast 540 621 43,000  Level Toronto Center
Sun 06:26:32 PM 44.1833 -77.1500 58° Northeast 540 621 43,000  Level Toronto Center
Sun 06:27:32 PM 44.2667 -76.9833 55° Northeast 540 621 43,000  Level Toronto Center
Sun 06:28:32 PM 44.3500 -76.8167 55° Northeast 540 621 43,000 -150 Level Toronto Center
Sun 06:29:32 PM 44.4167 -76.6167 65° Northeast 540 621 42,700 -1,450 Descending Toronto Center
Sun 06:30:32 PM 44.5000 -76.4500 55° Northeast 540 621 40,100 -2,850 Descending Toronto Center
Sun 06:31:32 PM 44.5833 -76.2667 57° Northeast 550 633 37,000 -3,040 Descending Toronto Center
Sun 06:31:47 PM 44.6000 -76.2500 35° Northeast 540 621 36,300 -2,800 Descending Montreal Center
Sun 06:32:47 PM 44.6667 -76.0667 63° Northeast 550 633 33,500 -2,900 Descending Montreal Center
Sun 06:33:47 PM 44.7167 -75.8500 72° East 540 621 30,500 -2,850 Descending Montreal Center
Sun 06:34:47 PM 44.7667 -75.6667 69° East 530 610 27,800 -2,750 Descending Montreal Center
Sun 06:35:47 PM 44.8167 -75.4667 71° East 510 587 25,000 -2,650 Descending Montreal Center
Sun 06:36:47 PM 44.8667 -75.3000 67° East 490 564 22,500 -2,500 Descending Montreal Center
Sun 06:37:47 PM 44.9167 -75.1167 69° East 470 541 20,000 -2,350 Descending Montreal Center
Sun 06:38:47 PM 44.9500 -74.9667 73° East 440 506 17,800 -2,250 Descending Montreal Center
Sun 06:39:47 PM 45.0167 -74.8333 55° Northeast 400 460 15,500 -2,150 Descending Montreal Center
Sun 06:40:47 PM 45.0667 -74.7167 59° Northeast 380 437 13,500 -1,900 Descending Montreal Center
Sun 06:41:47 PM 45.1167 -74.6000 59° Northeast 350 403 11,700 -1,650 Descending Montreal Center
Sun 06:42:47 PM 45.1667 -74.4667 62° Northeast 330 380 10,200 -1,550 Descending Montreal Center
Sun 06:43:47 PM 45.2000 -74.3833 60° Northeast 280 322 8,600 -1,450 Descending Montreal Center
Sun 06:44:47 PM 45.2000 -74.2500 90° East 280 322 7,300 -1,250 Descending Montreal Center
Sun 06:45:47 PM 45.2167 -74.1667 74° East 270 311 6,100 -1,100 Descending Montreal Center
Sun 06:46:47 PM 45.2167 -74.0667 90° East 250 288 5,100 -650 Descending Montreal Center
Sun 06:47:47 PM 45.2500 -73.9667 65° Northeast 230 265 4,800 -550 Descending Montreal Center
Sun 06:48:47 PM 45.3000 -73.9167 35° Northeast 210 242 4,000 -950 Descending Montreal Center
Sun 06:49:47 PM 45.3333 -73.8667 47° Northeast 210 242 2,900 -1,100 Descending Montreal Center
Sun 06:50:47 PM 45.3833 -73.8167 35° Northeast 180 207 1,800 -900 Descending Montreal Center
Sun 06:51:47 PM 45.4167 -73.7667 46° Northeast 140 161 1,100 -700 Descending Montreal Center
Sun 06:52:47 PM 45.4333 -73.7500 35° Northeast 130 150 400 -500 Descending Montreal Center
Sun 06:53:47 PM 45.4667 -73.7167 35° Northeast 120 138 100 -300 Descending Montreal Center

Login

Don't have an account? Register now (free) for customized features, flight alerts, and more!